VE-0143 weather

Muelle Seco Heliport
Puerto La Cruz, Anzoategui, Venezuela

Public forecast

Using degrees Celsius for public forecast. Weather courtesy of forecast.io.

Closest aviation weather report (METAR) to Muelle Seco Heliport

Closest report is General José Antonio Anzoategui International Airport, 8.3 nm (15.4 km) SSW. Retrieved 2020/04/10 05:02 UTC (20 minutes ago):

SVBC 100502Z AUTO 19002KT NCD 26/26 Q1011

Closest aviation forecast (TAF) to Muelle Seco Heliport

Closest forecast is General José Antonio Anzoategui International Airport, 8.3 nm (15.4 km) SSW. Retrieved 2020-04-10 00:06 UTC (5 hours ago):

TAF SVBC 092200Z 1000/1100 16005KT 9999 BKN016 TX31/19Z TN24/08Z TEMPO 1000/1004 09005KT 9000 DZ BKN016